Create Custom Reports and Graphics: Custom Report

McCoy Bottom of Ch3 - 9,630ft

Current Conditions

3/5/24 6:15 AM (-08:00)
Updated Every 15 Minutes
Temp 17.7 °F   6.3
WindChill 11.6 °F   13.2
Daily Min Temp 17.4 °F   6.3
Time of Min Temp 0537
Daily Max Temp 19.0 °F   5.5
Time of Max Temp 0039
Wind Dir N | 351 °
Wind Spd 3.9 mph   5.6
Wind Gust 16.9 mph   5.6
Daily Max Wind 24.0 mph   17.4
Time of Max Wind 0347
Max Wind Dir N | 351 °
RH 84 %   8
Dew Pt 13.6 °F   4.1
Wet Bulb 16.6 °F   5.5
WetB Hrs <28F 6.2 hrs   0.0
Yest MinT 10.8 °F
Yest MaxT 20.3 °F
Yest MaxGst 41.4 mph

Last 365 Observations

McCoy Bottom of Ch3 - 9,630ft

Daily Data | America/Los_Angeles
as of 3/5/24 6:15 AM PST
Date Daily Max Temp (°F) Time of Max Temp Daily Min Temp (°F) Time of Min Temp Max RH (%) Min RH (%) Dew Pt (°F) Wet Bulb (°F) Max Wet Bulb Temp (°F) Min Wet Bulb Temp (°F) WetB Hrs <28F (hrs) Hrs <= 32F (hrs)
3/4/24 20.3 1930 10.8 0718 96 85 14.2 15.6 19.9 10.6 24.0 24.0
3/3/24 14.6 0001 11.0 0336 100 92 11.0 12.4 14.3 10.7 24.0 24.0
3/2/24 20.7 0053 10.4 1734 96 91 12.4 13.7 20.3 10.1 24.0 24.0
3/1/24 23.2 1337 19.1 1844 97 94 19.6 20.2 22.8 18.7 24.0 24.0
2/29/24 25.0 1335 20.0 2358 98 69 20.5 22.2 24.7 19.6 24.0 24.0
2/28/24 34.2 1114 24.4 2321 97 37 15.9 24.7 28.1 22.0 24.0 22.1
2/27/24 28.6 2330 17.3 0544 97 36 16.3 21.1 26.8 16.9 24.0 24.0
2/26/24 25.2 1636 21.3 2359 98 82 22.3 22.9 24.9 20.9 24.0 24.0
2/25/24 34.3 1243 23.9 2355 98 23 12.2 24.7 28.0 20.5 24.0 20.1
2/24/24 41.5 1038 19.9 0122 83 22 10.2 25.0 31.5 17.9 19.0 15.9
2/23/24 36.4 1426 17.7 0306 88 23 13.3 21.3 31.7 14.2 21.5 22.2
2/22/24 31.2 1238 13.3 0354 90 29 9.4 18.6 25.0 11.6 24.0 24.0
2/21/24 21.0 0030 14.6 2215 96 83 16.8 18.0 20.5 13.8 24.0 24.0
2/20/24 24.9 1222 18.2 0113 97 74 18.6 19.9 23.1 17.7 24.0 24.0
2/19/24 28.6 0025 18.3 2338 99 83 22.0 22.6 27.4 17.9 24.0 24.0
2/18/24 29.3 2302 20.7 0820 97 46 19.5 23.4 26.9 19.3 24.0 24.0
2/17/24 30.2 0049 22.3 1842 97 60 21.1 24.3 27.0 21.8 24.0 24.0
2/16/24 39.9 1017 24.6 2106 91 35 16.2 26.6 32.5 20.8 18.1 16.8
2/15/24 28.2 2332 17.2 0719 96 32 14.0 20.1 23.0 16.8 24.0 24.0
2/14/24 24.9 0844 20.5 2332 96 48 14.6 20.5 22.2 17.5 24.0 24.0
2/13/24 28.3 1212 20.3 2154 93 24 7.5 20.3 22.4 17.7 24.0 24.0
2/12/24 39.8 1056 21.9 0502 55 16 1.5 22.1 29.5 16.4 23.8 19.2
2/11/24 38.1 0952 22.8 2241 56 9 7.7 24.1 30.1 17.6 18.5 16.6
2/10/24 27.7 2353 4.5 0724 93 6 -1.1 12.4 19.5 4.5 24.0 24.0
2/9/24 17.7 1504 9.0 0328 100 90 12.5 13.7 17.3 8.8 24.0 24.0
2/8/24 24.0 1105 10.7 2008 98 91 13.7 14.9 23.7 10.4 24.0 24.0
2/7/24 16.6 0337 12.1 2358 95 92 14.0 15.1 16.3 11.8 24.0 24.0
2/6/24 23.8 1133 16.0 2125 98 94 17.8 18.5 23.5 15.7 24.0 24.0
2/5/24 21.6 0025 16.8 0747 97 94 18.2 18.9 21.2 16.5 24.0 24.0
2/4/24 25.4 1537 15.9 0041 98 94 20.3 20.9 25.2 15.5 24.0 24.0
2/3/24 16.5 1422 11.3 0610 94 91 12.5 13.9 16.1 11.0 24.0 24.0
2/2/24 17.4 1358 13.6 2347 94 92 14.2 15.3 17.0 13.2 24.0 24.0
2/1/24 26.0 0301 16.5 2358 98 91 20.3 21.0 25.6 16.1 24.0 24.0
1/31/24 34.6 0039 24.2 2349 97 36 17.9 26.1 28.6 23.6 23.7 15.4
1/30/24 42.4 1042 30.4 0139 69 26 15.9 30.0 33.2 26.0 4.7 1.4
1/29/24 47.2 1219 30.3 0719 76 38 22.6 31.6 38.2 27.5 0.4 4.1
1/28/24 44.1 1346 31.3 0623 71 48 24.1 32.3 37.0 28.2 0.0 0.2
1/27/24 47.7 1123 33.1 2359 68 39 25.1 34.0 39.4 29.3 0.0 0.0
1/26/24 43.1 1259 20.8 0215 73 12 19.9 29.7 36.6 17.3 6.5 5.8
1/25/24 25.1 0023 16.3 0741 99 57 18.4 20.0 24.8 15.9 24.0 24.0
1/24/24 30.0 0941 21.2 0348 100 60 24.4 25.8 29.0 19.1 17.0 24.0
1/23/24 30.4 1316 17.8 0638 100 73 21.3 22.2 30.3 17.4 22.9 24.0
1/22/24 27.7 1228 23.2 0436 99 93 24.7 24.9 27.5 22.7 24.0 24.0
1/21/24 26.4 1227 20.0 0019 99 88 23.1 23.7 25.9 19.6 24.0 24.0
1/20/24 36.2 0725 20.0 2359 99 16 21.0 21.5 28.7 19.6 15.4 11.0
1/14/24 36.2 2105 21.9 0750 97 15 15.3 24.0 26.8 21.5 24.0 18.2
1/13/24 31.9 0430 21.3 1918 97 68 22.8 24.6 28.7 20.9 22.9 24.0
1/12/24 28.5 0643 21.7 0032 77 29 7.5 20.6 25.8 17.1 24.0 24.0
1/11/24 25.0 1506 1.3 0722 91 20 -1.9 12.0 18.9 1.4 24.0 24.0
1/10/24 18.5 0007 11.6 2359 93 53 11.7 15.1 16.9 11.1 24.0 24.0
1/9/24 31.2 0014 17.1 2309 96 33 15.9 18.6 25.1 15.2 23.2 23.2
1/8/24 31.8 2216 2.7 0029 89 13 4.3 18.0 25.7 2.7 24.0 24.0
1/7/24 10.6 1325 1.3 0521 89 56 -1.8 4.7 8.9 1.2 21.4 21.4
1/6/24 24.5 0247 5.3 2359 91 20 2.7 13.6 18.2 5.2 24.0 24.0
1/5/24 26.5 0107 15.7 1903 96 26 5.0 17.1 21.1 11.6 24.0 24.0
1/4/24 23.3 2323 8.4 0349 94 35 9.0 15.3 19.1 8.1 24.0 24.0
1/3/24 18.6 0001 12.0 0827 94 90 11.9 13.4 18.0 11.7 23.8 23.8
1/2/24 26.6 1341 18.5 2354 93 54 13.8 20.6 22.8 16.6 24.0 24.0
1/1/24 30.8 1303 15.7 0634 88 52 12.2 19.4 26.4 14.0 24.0 24.0
12/31/23 28.6 1147 17.4 0554 83 16 3.6 17.9 21.3 12.8 24.0 24.0
12/30/23 26.2 1231 19.3 2051 97 64 19.8 21.5 24.5 17.7 24.0 24.0
12/29/23 37.7 0054 25.6 2359 70 18 11.9 27.5 30.5 22.9 10.8 4.3
12/28/23 39.9 1430 29.6 0119 90 36 20.7 30.0 34.2 27.6 0.1 4.3
12/27/23 36.5 0238 26.4 2212 81 15 1.4 23.9 29.1 21.2 23.4 17.4
12/26/23 37.3 2258 30.0 0247 72 15 7.8 26.9 30.6 24.0 19.3 1.7
12/25/23 40.6 1110 29.1 0633 80 35 19.6 29.2 34.6 24.3 8.4 2.9
12/24/23 40.2 1235 21.3 0032 75 19 6.3 24.8 30.7 18.7 22.0 12.0
12/23/23 31.1 1349 19.9 0627 97 56 19.6 22.2 30.3 18.2 22.2 24.0
12/22/23 31.1 1304 21.6 2358 100 97 25.6 25.6 31.0 21.2 19.7 24.0
12/21/23 29.5 1434 24.2 0533 100 98 26.9 26.8 29.4 23.9 18.7 24.0
12/20/23 30.2 1204 24.6 0737 100 98 26.8 26.8 30.1 24.3 21.0 24.0
12/19/23 29.3 0039 25.0 2359 100 98 27.2 27.2 29.2 24.7 17.6 24.0
12/18/23 40.1 0001 27.7 0217 100 20 28.5 30.5 33.0 27.0 1.4 19.0
12/17/23 47.4 1042 35.3 0123 35 14 3.1 29.5 35.7 26.1 2.8 0.0
12/16/23 46.5 1348 33.7 2210 26 6 -4.6 28.6 33.0 25.3 11.7 0.0
12/15/23 43.8 2348 27.8 2136 40 11 0.7 26.3 32.2 21.7 18.1 5.6
12/14/23 39.0 1156 24.5 0032 40 10 -6.4 23.9 29.0 18.6 23.8 12.4
12/13/23 32.0 1343 15.6 0334 94 31 8.7 20.4 25.6 15.0 24.0 24.0
12/12/23 31.8 1026 17.8 2350 96 35 13.2 21.8 26.6 17.3 24.0 24.0
12/11/23 38.9 0103 25.7 2230 63 7 3.3 26.3 29.1 20.8 17.9 6.6
12/10/23 49.2 1053 34.6 0236 59 11 7.5 31.2 35.7 27.1 1.3 0.0
12/9/23 39.4 1301 31.6 0150 55 11 7.1 27.9 32.7 23.8 12.9 0.3
12/8/23 35.6 1349 22.7 0011 35 7 -11.5 21.0 25.8 16.7 24.0 19.1
12/7/23 23.9 1331 17.9 0726 97 22 16.8 20.3 23.3 16.8 24.0 24.0
12/6/23 39.2 0012 23.1 2154 97 38 20.0 27.3 31.6 22.4 9.2 8.7
12/5/23 46.8 1155 29.3 0006 60 29 16.8 31.6 36.2 25.3 3.9 2.1
12/4/23 41.8 1141 28.3 0655 60 30 15.4 28.5 33.9 23.7 9.5 4.2
12/3/23 39.6 0852 26.5 0033 65 27 12.3 27.4 31.6 22.5 10.4 6.0
12/2/23 30.4 1616 21.7 0033 87 33 12.1 22.0 25.7 19.0 24.0 24.0
12/1/23 27.1 1325 17.2 0339 94 50 13.8 20.2 23.5 16.6 24.0 24.0
11/30/23 23.3 1112 17.8 2351 95 67 16.8 19.2 21.2 17.3 24.0 24.0
11/29/23 33.7 1319 19.4 2029 86 32 11.5 21.2 27.1 17.0 24.0 23.1
11/28/23 35.1 1042 19.7 0005 54 9 -3.6 21.5 25.5 14.3 24.0 19.3
11/27/23 34.6 1224 17.2 0533 45 14 -9.2 17.5 25.6 12.6 24.0 22.0
11/26/23 33.6 1243 19.8 0140 43 10 -9.5 19.2 25.2 14.2 24.0 21.7
11/25/23 28.6 1400 14.1 0705 54 15 -3.6 16.5 21.8 10.3 24.0 24.0
11/24/23 27.3 1319 9.4 0654 95 39 10.7 15.9 23.1 9.1 24.0 24.0
11/23/23 40.3 0032 19.0 2359 98 23 19.5 26.6 32.1 18.5 10.5 12.1
11/22/23 50.4 1018 35.2 2110 43 15 8.2 31.4 36.3 27.0 1.3 0.0
11/21/23 50.3 1241 32.6 0019 32 7 0.2 30.9 36.5 23.6 5.8 0.0
11/20/23 41.4 1345 29.0 0057 23 8 -11.8 25.4 29.8 20.7 20.4 6.0
11/19/23 41.1 1203 18.0 0411 99 14 3.0 23.2 30.8 17.2 22.5 17.0
11/18/23 28.2 1640 25.2 2359 100 92 26.7 26.7 28.0 24.9 24.0 24.0
11/17/23 33.3 1407 21.4 0725 99 66 24.7 26.3 31.3 21.0 18.4 22.4
11/16/23 32.3 1200 23.1 2359 100 70 28.1 28.5 32.0 21.4 7.7 23.7
11/15/23 38.4 0940 26.9 1730 100 21 20.8 29.2 35.5 24.6 9.7 9.2
11/14/23 37.9 1253 27.8 0349 57 26 7.8 26.5 30.3 22.8 18.0 8.1
11/13/23 37.0 1344 29.1 2145 49 26 8.6 25.8 29.7 23.4 19.1 14.7
11/12/23 40.6 1100 30.8 2240 41 21 8.3 28.3 31.3 24.1 8.1 4.1
11/11/23 46.1 1420 31.8 2222 47 21 10.4 29.6 34.3 25.2 5.2 0.1
11/10/23 42.9 1323 27.2 2035 83 8 2.2 26.0 32.6 21.5 18.1 9.4
11/9/23 30.6 2356 15.6 0609 94 14 10.6 21.0 26.6 14.8 24.0 24.0
11/8/23 23.7 1336 17.0 2155 97 93 18.9 19.6 23.3 16.5 24.0 24.0
11/7/23 28.3 0032 20.5 2345 99 96 22.7 23.1 28.0 20.1 24.0 24.0
11/6/23 36.2 0042 27.8 2320 100 59 28.0 29.7 33.4 27.1 2.2 20.0
11/5/23 44.8 1252 34.8 2356 79 28 21.9 32.9 37.4 29.2 0.0 0.0
11/4/23 50.4 1410 39.2 0058 63 35 26.0 37.1 39.8 33.6 0.0 0.0
11/3/23 54.2 1057 38.0 0617 51 13 19.3 36.6 41.4 30.2 0.0 0.0
11/2/23 51.6 1312 36.8 0025 40 13 5.9 33.5 36.6 29.2 0.0 0.0
11/1/23 53.8 1404 33.2 0342 50 9 2.6 30.3 38.1 24.8 4.6 0.0
10/31/23 50.1 1400 30.5 0502 26 11 -0.9 29.5 36.1 22.6 8.6 1.3
10/30/23 47.9 1457 29.8 0123 35 5 -9.6 27.3 34.0 20.7 14.5 1.6
10/29/23 35.7 1319 20.3 0436 37 5 -7.2 21.1 27.4 14.4 24.0 17.4
10/28/23 35.2 1112 15.1 2237 76 7 0.5 21.0 26.8 13.4 24.0 22.5
10/27/23 40.5 1414 29.2 0042 80 6 1.5 27.5 32.3 22.8 11.6 1.7
10/26/23 40.0 1458 26.4 0726 100 25 21.6 29.3 33.1 25.0 7.0 10.0
10/25/23 41.0 1133 27.8 0027 100 29 23.4 31.2 34.2 27.4 0.6 6.6
10/24/23 48.8 1137 31.1 0404 74 11 18.7 32.7 38.5 24.2 3.7 0.3
10/23/23 43.1 1555 30.6 0708 98 54 29.1 32.7 37.7 29.2 0.0 5.8
10/22/23 41.1 0103 31.4 2302 97 65 31.8 34.3 37.0 30.0 0.0 3.9
10/21/23 54.5 1258 41.0 0059 67 31 29.8 39.7 43.1 36.6 0.0 0.0
10/20/23 56.0 1249 43.9 2013 65 32 27.7 40.6 44.2 37.9 0.0 0.0
10/19/23 63.3 1453 42.3 0152 43 15 22.9 40.8 44.7 33.9 0.0 0.0
10/18/23 61.1 1500 40.6 0705 49 19 22.4 39.4 45.3 34.1 0.0 0.0
10/17/23 58.9 1449 45.7 0050 42 12 15.5 38.0 42.4 34.5 0.0 0.0
10/16/23 56.4 1325 47.8 0056 44 8 21.4 39.8 44.2 34.3 0.0 0.0
10/15/23 61.2 1242 40.8 0645 52 17 24.5 40.5 45.5 31.4 0.0 0.0
10/14/23 51.1 1543 35.9 0103 60 10 14.9 34.2 39.2 28.2 0.0 0.0
10/13/23 49.1 1209 32.2 0111 66 7 16.0 32.6 36.0 27.6 0.2 0.0
10/12/23 44.6 1616 23.4 0657 85 32 18.6 28.2 35.8 21.0 10.5 9.5
10/11/23 42.3 1356 25.0 0038 100 29 24.4 30.0 37.0 23.4 7.7 13.8
10/10/23 46.5 1422 31.3 0040 100 23 23.2 33.8 38.3 30.5 0.0 0.3
10/9/23 51.8 1358 38.3 2326 81 34 29.5 38.8 42.1 33.0 0.0 0.0
10/8/23 59.0 1234 47.8 2355 50 26 27.4 41.8 45.4 37.6 0.0 0.0
10/7/23 60.4 1430 41.1 0114 57 17 27.3 40.6 45.8 35.1 0.0 0.0
10/6/23 58.0 1517 39.6 0440 71 23 28.5 40.1 45.8 35.4 0.0 0.0
10/5/23 55.2 1552 37.6 0500 80 36 32.6 40.3 44.7 35.2 0.0 0.0
10/4/23 51.4 1549 34.3 0706 97 54 33.7 38.3 44.9 33.4 0.0 0.0
10/3/23 48.6 1357 32.8 0318 98 53 32.8 37.3 44.1 29.8 0.0 0.0
10/2/23 41.4 1502 24.7 0221 100 70 30.1 31.8 38.3 24.3 6.7 8.2
10/1/23 36.9 1321 25.9 0711 100 71 27.8 28.9 35.0 24.9 7.9 19.3
9/30/23 34.9 0101 25.2 1004 100 86 29.0 29.4 34.9 24.8 7.4 19.4
9/29/23 49.1 1151 34.6 0051 100 17 28.2 37.4 41.4 33.0 0.0 0.0
9/28/23 58.0 1437 46.8 2355 70 11 20.2 39.4 44.9 33.5 0.0 0.0
9/27/23 60.2 1323 47.6 0436 67 19 23.2 40.5 45.8 35.8 0.0 0.0
9/26/23 56.2 1347 42.5 0550 56 9 11.8 36.5 43.0 30.8 0.0 0.0
9/25/23 53.2 1244 40.8 0653 47 15 12.9 34.7 38.2 31.1 0.0 0.0
9/24/23 54.2 1433 41.9 0237 42 17 12.7 35.0 39.7 31.2 0.0 0.0
9/23/23 52.2 1327 41.2 0533 54 7 9.0 34.6 38.6 29.7 0.0 0.0
9/22/23 52.5 1357 34.0 0246 59 9 7.6 32.6 38.3 26.8 2.9 0.0
9/21/23 40.5 1133 33.4 2140 96 44 31.5 34.5 37.1 28.4 0.0 0.0
9/20/23 55.1 1132 37.3 0035 99 38 34.6 40.3 46.2 34.8 0.0 0.0
9/19/23 58.8 1333 40.4 0654 68 23 30.2 40.7 45.7 36.4 0.0 0.0
9/18/23 58.7 1411 43.2 0139 63 25 29.9 41.6 45.8 38.0 0.0 0.0
9/17/23 59.7 1605 44.2 0021 69 33 34.1 43.5 48.0 39.1 0.0 0.0
9/16/23 60.0 1445 44.9 2346 68 29 33.2 43.1 47.8 39.9 0.0 0.0
9/15/23 59.5 1438 41.1 0645 73 28 31.9 42.3 47.8 35.4 0.0 0.0
9/14/23 60.1 1536 43.9 0651 70 36 34.3 42.8 48.3 37.6 0.0 0.0
9/13/23 58.3 1407 43.8 0619 75 29 35.4 43.9 48.5 40.5 0.0 0.0
9/12/23 58.2 1329 41.9 0534 82 34 36.4 43.8 48.2 39.7 0.0 0.0
9/11/23 56.5 1322 44.1 0056 88 47 40.7 46.0 49.6 41.0 0.0 0.0
9/10/23 58.9 1405 47.4 1838 89 50 43.6 47.6 52.1 44.4 0.0 0.0
9/9/23 58.0 1510 44.9 1012 91 59 42.7 47.0 52.5 43.1 0.0 0.0
9/8/23 60.5 1416 45.4 0343 64 18 22.2 40.3 44.2 33.8 0.0 0.0
9/7/23 58.5 1235 44.3 0627 68 18 26.8 40.9 46.0 34.6 0.0 0.0
9/6/23 56.5 1308 44.6 0538 84 34 36.8 43.6 47.6 40.7 0.0 0.0
9/5/23 57.6 1606 42.9 0609 79 25 33.1 42.6 47.5 37.5 0.0 0.0
9/4/23 56.2 1608 32.7 0104 99 38 30.5 38.7 46.0 29.6 0.0 0.0
9/3/23 45.4 0931 32.9 0059 100 72 36.9 38.2 42.3 32.2 0.0 0.0
9/2/23 46.8 1257 41.0 0442 100 55 39.7 42.2 46.6 35.6 0.0 0.0
9/1/23 52.2 1409 40.5 2205 69 25 23.5 37.1 41.2 34.0 0.0 0.0
8/31/23 60.2 1250 45.7 2328 50 11 17.8 39.8 44.4 35.3 0.0 0.0
8/30/23 68.6 1226 45.9 0542 42 7 18.0 42.8 47.1 36.6 0.0 0.0
8/29/23 65.8 1528 52.5 0530 56 15 29.4 45.2 49.3 40.7 0.0 0.0
8/28/23 69.3 1508 47.7 0613 43 16 28.2 45.1 49.8 38.0 0.0 0.0
8/27/23 66.5 1503 46.1 0140 55 12 26.0 43.6 49.0 38.6 0.0 0.0
8/26/23 62.7 1412 46.2 0044 61 24 31.0 43.7 49.2 38.8 0.0 0.0
8/25/23 60.3 1258 48.6 0509 82 45 41.0 47.5 51.4 43.5 0.0 0.0
8/24/23 57.7 1302 44.2 0420 84 31 37.8 45.3 49.4 37.6 0.0 0.0
8/23/23 60.5 1453 38.9 0551 90 30 35.2 43.4 49.8 37.6 0.0 0.0
8/22/23 53.2 1357 40.2 0415 91 56 38.2 42.6 47.4 38.1 0.0 0.0
8/21/23 48.5 1622 40.0 0755 100 71 41.2 42.6 46.3 39.0 0.0 0.0
8/20/23 44.2 1358 39.9 2113 100 78 40.2 41.3 43.8 39.2 0.0 0.0
8/19/23 56.4 1000 41.3 0044 99 30 34.2 42.9 47.6 38.0 0.0 0.0
8/18/23 62.5 1233 46.6 1831 84 24 31.6 44.2 47.4 40.2 0.0 0.0
8/17/23 62.2 1331 49.6 0725 76 41 40.4 48.1 51.8 44.8 0.0 0.0
8/16/23 65.0 1352 49.8 1815 85 36 39.8 48.0 53.4 44.1 0.0 0.0
8/15/23 60.2 1814 46.9 0430 88 34 38.7 46.4 51.3 40.0 0.0 0.0
8/14/23 61.0 1735 47.9 0325 75 39 39.0 47.0 50.9 43.4 0.0 0.0
8/13/23 58.2 1814 47.2 1244 86 42 38.9 46.0 50.2 43.1 0.0 0.0
8/12/23 64.8 1625 45.0 0526 86 29 38.3 46.4 52.7 41.0 0.0 0.0
8/11/23 60.0 1502 45.9 0207 84 45 41.9 47.0 53.6 42.6 0.0 0.0
8/10/23 64.4 1413 46.1 0519 73 29 33.3 44.8 50.1 38.0 0.0 0.0
8/9/23 61.1 1338 49.2 0149 59 6 18.1 41.1 44.9 36.0 0.0 0.0
8/8/23 61.2 1324 47.8 0310 66 17 28.8 43.1 47.2 38.6 0.0 0.0
8/7/23 63.1 1307 47.7 0533 69 11 30.8 44.7 50.2 40.2 0.0 0.0
8/6/23 66.6 1356 45.9 0546 65 8 33.4 45.8 51.2 41.1 0.0 0.0
8/5/23 62.0 1555 44.6 0605 63 10 25.3 42.7 46.6 34.9 0.0 0.0
8/4/23 62.4 1136 44.9 0534 73 7 24.7 42.8 49.7 36.4 0.0 0.0
8/3/23 60.8 1132 45.0 0524 70 20 33.2 44.2 48.3 39.2 0.0 0.0
8/2/23 61.8 1113 49.1 2034 63 26 30.5 43.7 47.9 40.1 0.0 0.0
8/1/23 62.1 1242 51.6 0059 50 30 30.8 44.3 48.2 41.6 0.0 0.0
7/31/23 62.9 1440 53.4 2232 42 28 29.8 44.8 48.7 41.4 0.0 0.0
7/30/23 63.8 1458 53.0 0331 56 16 30.1 45.1 49.2 41.0 0.0 0.0
7/29/23 63.0 1227 53.5 2348 51 16 27.0 44.4 48.8 40.2 0.0 0.0
7/28/23 65.8 1559 51.8 0255 46 12 27.4 44.6 48.2 40.7 0.0 0.0
7/27/23 62.8 1444 50.9 0344 52 16 30.1 44.3 47.5 42.0 0.0 0.0
7/26/23 64.1 1338 53.0 0011 51 28 32.9 46.4 49.2 44.2 0.0 0.0
7/25/23 65.5 1446 53.9 0114 48 25 33.5 47.0 50.3 44.3 0.0 0.0
7/24/23 61.8 1229 50.8 0211 75 27 36.9 47.1 50.1 43.1 0.0 0.0
7/23/23 68.6 1251 51.9 0007 62 18 33.0 48.1 53.0 42.9 0.0 0.0
7/22/23 71.8 1207 54.6 0411 49 19 32.3 48.0 52.5 43.5 0.0 0.0
7/21/23 72.8 1402 52.2 0503 52 16 36.1 49.0 54.1 42.3 0.0 0.0
7/20/23 68.7 1440 54.2 0519 69 16 38.2 49.3 51.7 45.5 0.0 0.0
7/19/23 64.4 1336 54.8 0545 68 47 43.7 50.9 54.0 48.4 0.0 0.0
7/18/23 64.3 1335 55.2 1956 77 46 44.9 51.7 55.0 48.6 0.0 0.0
7/17/23 69.8 1351 56.5 0058 77 27 41.2 51.8 56.4 47.0 0.0 0.0
7/16/23 72.7 1335 56.7 0251 47 18 31.2 48.7 52.1 44.0 0.0 0.0
7/15/23 74.0 1337 53.2 0557 33 10 25.7 46.6 50.9 40.8 0.0 0.0
7/14/23 73.0 1433 47.9 0520 41 12 26.3 44.9 50.2 38.3 0.0 0.0
7/13/23 66.4 1516 52.3 0141 43 6 13.9 42.0 48.6 36.4 0.0 0.0
7/12/23 59.4 0840 50.4 0555 49 7 20.5 41.5 45.0 36.3 0.0 0.0
7/11/23 60.9 1115 50.0 0447 49 11 23.2 42.2 45.7 36.8 0.0 0.0
7/10/23 63.8 1127 51.4 0044 45 12 25.0 43.1 48.7 37.0 0.0 0.0
7/9/23 58.0 1451 45.9 0535 73 33 34.8 44.6 48.7 39.2 0.0 0.0
7/8/23 60.4 1506 46.8 0518 62 33 34.8 45.0 49.1 41.3 0.0 0.0
7/7/23 58.6 1058 46.9 0528 61 36 35.0 44.5 47.3 41.3 0.0 0.0
7/6/23 61.2 1426 49.9 2316 55 30 32.6 44.6 48.4 41.2 0.0 0.0
7/5/23 63.7 1351 47.7 0535 54 31 33.0 45.0 49.0 40.6 0.0 0.0
7/4/23 61.0 1435 47.5 0412 61 26 34.0 44.9 48.2 41.0 0.0 0.0
7/3/23 61.6 1259 51.0 0101 55 31 34.0 45.7 48.9 42.4 0.0 0.0
7/2/23 66.8 1321 51.5 0600 53 26 35.7 47.6 50.4 43.8 0.0 0.0
7/1/23 66.0 1341 52.2 0340 54 25 32.7 46.2 50.6 41.8 0.0 0.0
6/30/23 63.7 1553 44.9 0533 57 25 31.6 44.0 49.3 38.7 0.0 0.0
6/29/23 59.2 1438 40.4 0358 66 34 30.3 41.2 45.9 36.0 0.0 0.0
6/28/23 53.7 1124 39.5 0423 76 36 31.0 38.6 44.3 36.0 0.0 0.0
6/27/23 51.6 1600 35.6 0515 88 34 29.3 38.2 41.9 33.4 0.0 0.0
6/26/23 50.3 1108 37.5 0519 85 39 33.8 39.2 43.2 35.5 0.0 0.0
6/25/23 50.4 0900 39.9 0632 80 25 30.9 38.9 42.4 34.8 0.0 0.0
6/24/23 52.1 1503 37.1 0545 73 31 26.9 37.1 41.4 32.7 0.0 0.0
6/23/23 53.0 1409 30.2 0423 95 24 28.4 35.7 42.3 25.4 1.3 4.1
6/22/23 46.6 0909 31.7 0053 97 33 24.7 33.6 38.0 29.1 0.0 0.9
6/21/23 51.2 1246 30.5 0555 64 18 19.1 33.1 39.2 24.2 2.7 0.2
6/20/23 42.6 1610 25.9 0513 92 16 16.6 28.7 34.3 23.5 10.9 7.9
6/19/23 38.3 0158 28.0 0057 100 27 24.1 31.2 38.4 26.5 3.2 5.3
6/18/23 46.4 1601 37.9 0044 99 50 37.2 40.5 42.4 37.8 0.0 0.0
6/17/23 52.1 1520 40.2 0427 89 45 35.2 42.0 47.0 33.9 0.0 0.0
6/16/23 55.6 1433 35.4 0528 83 28 27.3 38.5 47.7 30.1 0.0 0.0
6/15/23 53.2 1438 39.2 0050 81 33 34.1 41.2 47.5 34.1 0.0 0.0
6/14/23 53.8 1149 40.2 0214 96 47 38.2 42.5 46.7 38.1 0.0 0.0
6/13/23 52.3 1109 36.2 0311 98 53 36.4 40.2 46.0 34.6 0.0 0.0
6/12/23 52.0 1459 34.2 0547 96 53 33.9 36.8 44.6 33.2 0.0 0.0
6/11/23 45.3 1204 31.7 0316 99 60 31.7 34.8 40.3 31.4 0.0 0.3
6/10/23 45.7 1051 32.9 2032 96 58 33.2 36.6 41.6 32.3 0.0 0.0
6/9/23 50.1 0837 34.4 0433 88 43 31.7 38.1 41.7 31.9 0.0 0.0
6/8/23 50.9 1437 35.0 0537 97 43 31.4 36.1 44.0 33.4 0.0 0.0
6/7/23 44.5 1108 34.6 0015 87 48 29.3 35.2 38.2 32.5 0.0 0.0
6/6/23 48.8 1540 35.3 0121 99 26 30.1 36.4 41.0 33.1 0.0 0.0
6/5/23 54.9 1355 35.4 0035 99 27 31.3 38.9 44.3 35.3 0.0 0.0
6/4/23 55.2 1020 39.2 2303 81 37 29.5 38.9 43.9 34.8 0.0 0.0
6/3/23 53.8 1045 36.9 0446 64 34 28.1 38.6 42.9 32.2 0.0 0.0
6/2/23 50.1 1400 33.8 0559 65 6 16.2 34.8 40.8 28.4 0.0 0.0
6/1/23 47.2 1228 35.4 0518 90 28 26.3 35.8 39.6 30.8 0.0 0.0
5/31/23 53.5 1128 34.4 0405 82 35 28.6 36.1 43.0 31.3 0.0 0.0
5/30/23 53.4 1337 35.3 0521 96 20 29.4 36.3 42.6 33.0 0.0 0.0
5/29/23 50.4 1344 36.3 0420 95 45 33.8 38.3 44.5 35.2 0.0 0.0
5/28/23 47.9 0816 36.7 2358 96 47 32.3 37.6 41.5 33.1 0.0 0.0
5/27/23 51.4 0956 34.3 0543 88 40 30.4 37.1 41.9 31.0 0.0 0.0
5/26/23 50.0 1114 31.9 0517 90 25 26.3 34.6 41.4 25.8 2.5 0.0
5/25/23 50.6 1157 33.8 0413 88 31 28.0 34.9 41.2 29.7 0.0 0.0
5/24/23 48.2 0903 35.6 0056 81 33 26.0 34.9 40.3 30.0 0.0 0.0
5/23/23 48.2 1310 37.4 2320 95 61 35.7 39.8 42.7 34.4 0.0 0.0
5/22/23 54.8 1001 42.4 2333 91 37 32.8 41.0 44.7 37.0 0.0 0.0
5/21/23 55.9 1037 40.5 1744 78 42 31.8 39.5 45.4 36.6 0.0 0.0
5/20/23 57.8 1024 42.3 2142 69 31 30.8 40.5 45.0 38.2 0.0 0.0
5/19/23 58.3 1141 42.9 0459 65 27 28.0 40.7 46.3 35.4 0.0 0.0
5/18/23 52.9 1331 43.1 0427 60 26 25.0 38.7 42.4 34.3 0.0 0.0
5/17/23 51.6 0829 41.6 0525 63 29 25.5 38.4 41.0 35.0 0.0 0.0
5/16/23 55.4 1126 40.4 0548 55 29 24.6 38.2 42.6 33.4 0.0 0.0
5/15/23 48.5 1617 39.7 0419 59 31 24.1 36.6 39.5 34.2 0.0 0.0
5/14/23 46.2 1346 37.1 0237 68 42 27.4 36.6 39.3 31.5 0.0 0.0
5/13/23 54.9 1308 36.4 0540 59 26 23.4 35.6 42.0 31.6 0.0 0.0
5/12/23 52.9 1219 32.2 0542 65 31 23.6 35.1 41.5 28.1 0.0 0.0
5/11/23 51.8 1120 28.3 0530 68 28 22.1 32.2 40.4 25.2 5.8 5.9
5/10/23 39.1 1032 23.1 0457 84 31 20.0 28.3 34.1 20.0 10.7 9.4
5/9/23 45.3 1219 26.3 0145 81 13 10.0 26.3 34.2 20.0 16.3 12.2
5/8/23 31.3 1604 23.1 0554 98 51 22.0 25.4 28.2 22.2 23.9 24.0
5/7/23 29.8 1616 19.8 0614 99 79 23.4 24.4 28.5 19.3 22.0 24.0
5/6/23 23.8 1643 20.5 0623 97 94 21.0 21.6 23.4 20.0 24.0 24.0
5/5/23 26.6 1608 17.4 0415 98 86 20.8 21.6 25.7 17.0 24.0 24.0
5/4/23 25.8 1023 16.4 0555 97 69 17.9 19.9 23.8 15.3 24.0 24.0
5/3/23 31.1 1703 15.5 0428 99 41 18.6 21.5 29.2 15.1 23.9 24.0
5/2/23 27.7 1253 16.7 0612 99 93 19.7 20.4 27.5 16.3 24.0 24.0
5/1/23 35.3 0101 19.9 2354 100 86 26.9 27.3 34.2 19.5 11.0 19.8
4/30/23 46.9 1230 35.2 0044 98 37 28.5 36.3 39.4 33.7 0.0 0.0
4/29/23 52.9 1424 41.3 0553 73 27 25.7 38.2 40.7 33.7 0.0 0.0
4/28/23 55.7 1246 37.0 0206 60 21 22.2 37.0 42.1 30.1 0.0 0.0
4/27/23 53.6 1520 34.0 0503 45 21 15.3 33.8 40.2 27.4 0.1 0.0
4/26/23 50.2 1213 28.9 0539 50 17 14.4 32.0 39.4 23.4 6.2 1.5
4/25/23 43.1 1552 27.4 0522 93 8 9.6 28.9 33.5 23.6 8.1 4.0
4/24/23 43.9 1248 32.9 0711 97 16 19.0 32.0 37.8 26.4 3.2 0.0
4/23/23 41.9 1044 32.7 0617 98 25 27.6 33.6 37.3 28.0 0.0 0.0
4/22/23 49.3 1406 27.9 0656 97 41 26.5 33.4 40.1 25.8 2.0 4.6
4/21/23 48.6 1525 31.8 0555 82 44 26.6 34.0 40.2 28.7 0.0 0.1
4/20/23 44.4 1311 24.1 0101 65 21 13.7 28.4 35.8 18.7 7.8 7.5
4/19/23 26.8 1510 10.7 0622 93 27 10.4 17.3 23.3 10.4 24.0 24.0
4/18/23 19.9 0213 14.5 0054 95 82 15.4 16.6 19.4 14.1 24.0 24.0
4/17/23 30.7 1141 19.2 0034 98 52 22.0 25.0 27.7 16.8 24.0 24.0
4/16/23 37.7 1517 28.4 0059 94 34 21.1 29.3 32.2 26.7 7.5 6.7
4/15/23 39.8 1144 24.8 0612 59 17 12.3 27.4 32.1 19.9 9.5 6.8
4/14/23 36.0 1133 23.8 0412 58 12 5.6 23.9 29.4 18.1 20.3 15.2
4/13/23 34.2 1218 23.6 0047 88 12 4.8 22.8 28.6 17.7 23.9 20.6
4/12/23 33.6 1412 23.8 2208 98 36 23.1 27.5 31.4 20.4 10.8 19.9
4/11/23 41.2 1204 32.1 0053 97 56 28.3 33.1 36.5 30.0 0.0 0.0
4/10/23 45.8 1038 34.0 0205 81 40 25.8 34.4 37.6 29.3 0.0 0.0
4/9/23 46.4 1415 29.1 0610 71 38 22.0 32.9 37.7 25.4 1.4 1.3
4/8/23 41.1 1338 17.9 0441 99 41 22.1 27.9 34.0 17.4 10.2 10.8
4/7/23 26.1 1731 20.0 0915 98 57 21.0 22.6 25.9 19.5 24.0 24.0
4/6/23 35.8 1222 15.0 0226 66 21 6.3 22.0 28.9 11.0 23.5 17.3
4/5/23 31.8 1458 2.8 0223 92 24 2.3 15.1 26.2 2.5 24.0 24.0
4/4/23 15.8 1525 -4.5 0628 93 60 1.9 6.3 14.2 -4.0 24.0 24.0
4/3/23 19.8 0101 -2.1 0057 96 86 4.7 7.0 19.4 -1.7 24.0 24.0
4/2/23 27.8 1229 19.8 0054 100 46 20.4 20.8 24.6 18.3 22.1 22.1
4/1/23 30.5 1328 22.6 0608 69 26 6.0 21.0 25.0 17.6 24.0 24.0
3/31/23 26.0 1504 11.4 0354 93 20 2.6 16.4 21.4 10.0 24.0 24.0
3/30/23 25.1 1326 7.2 0101 100 91 13.7 14.7 24.9 7.1 24.0 24.0
3/29/23 20.5 0115 6.9 0037 97 90 11.4 12.7 20.2 6.8 24.0 24.0
3/28/23 21.4 2324 14.4 0220 98 75 15.7 17.3 21.1 13.9 24.0 24.0
3/27/23 23.9 1406 -0.1 0417 98 88 11.9 13.3 23.6 0.2 24.0 24.0
3/26/23 18.5 1347 2.8 0058 96 89 6.0 7.9 18.2 3.0 24.0 24.0
3/25/23 18.3 1405 7.7 0615 96 90 10.9 12.3 17.9 7.5 24.0 24.0
3/24/23 18.5 1438 8.7 0643 95 91 11.6 13.0 18.1 8.6 24.0 24.0
3/23/23 23.5 1130 11.1 0056 97 92 17.7 18.5 23.1 10.8 24.0 24.0
3/22/23 23.1 1801 18.2 0118 97 95 20.1 20.6 22.7 17.8 24.0 24.0
3/21/23 22.3 1125 14.1 0255 98 93 16.3 17.2 21.9 13.8 24.0 24.0
3/20/23 31.3 1238 13.3 2301 100 93 20.8 21.3 31.2 13.0 20.3 24.0
3/19/23 25.2 1328 19.5 0504 100 89 21.6 21.6 25.0 19.2 23.6 23.6
3/18/23 29.9 1226 9.2 0528 100 89 19.1 20.1 29.8 9.0 23.8 24.0
3/17/23 23.6 1238 7.2 0722 98 90 14.8 15.8 23.3 7.1 24.0 24.0
3/16/23 30.0 1119 4.6 0726 100 89 15.1 16.2 29.8 4.6 23.1 24.0
3/15/23 28.3 1427 15.0 0031 100 94 22.9 23.3 28.0 14.6 23.9 24.0
3/14/23 29.9 1607 23.2 0149 100 97 26.5 26.5 29.8 22.9 15.8 24.0
3/13/23 25.2 1915 19.4 0525 100 96 22.4 22.7 24.9 19.1 24.0 24.0
3/12/23 25.4 1246 22.1 0343 98 96 22.6 23.0 25.1 21.7 24.0 24.0
3/11/23 27.7 0021 22.8 1950 99 96 24.1 24.4 27.5 22.4 24.0 24.0
3/10/23 28.9 1530 24.4 0001 99 97 27.0 27.1 28.7 24.0 18.8 24.0
3/9/23 24.4 2359 11.1 0143 98 73 16.1 17.6 24.0 10.8 24.0 24.0
3/8/23 13.4 1518 7.5 0532 93 90 8.8 10.5 13.1 7.4 24.0 24.0
3/7/23 15.1 1341 6.7 0629 94 89 10.2 11.8 14.7 6.6 23.9 23.9
3/6/23 30.2 1319 8.5 0001 98 87 18.3 19.8 29.9 8.2 18.4 24.0
Max 74.0 - 56.7 - 100 98 44.9 51.8 56.4 48.6 24.0 24.0
Avg - - - - - - 21.3 31.3 - - - 9.4
Min 10.6 - -4.5 - 23 5 -11.8 4.7 8.9 -4.0 0.0 0.0
Total - - - - - - - - - - - 3,386.2